Startpagina
METAR-TAF:

METAR-TAF

Vliegvelden :

Vliegbasis Kleine-Brogel

Peer, België

breedte: 51-10N, lengte: 005-28E, hoogte: 55 m

Actueel weer

Dit bericht is 13 uur en het 4 minuten geleden gemaakt, om 17:55 UTC
Wind 1 kt uit variabele richting
Temperatuur 7°C
Vochtigheid 70%
Druk 1028 hPa
Zicht 10 km of meer

METAR: EBBL 151755Z AUTO VRB01KT 9999 NCD 07/02 Q1028 BLU

Tijdstip: 07:59 (06:59 UTC)

Verwachting

Dit bericht is 15 uur en het 18 minuten geleden gemaakt, om 15:41 UTC
Verwachting geldig van 15 om 19 UTC tot 16 om 07 UTC
Wind 4 kt uit het zuidoosten
Zicht 10 km of meer
Weinig wolken op 18000 ft
Wijzigt naar
van 15 om 23 UTC tot 16 om 01 UTC
Wind 6 kt uit het zuidwesten

TAF: EBBL 151541Z 1519/1607 14004KT 9999 FEW180 BECMG 1523/1601 22006KT

Waarnemingen en weersverwachtingen van meer dan 4000 vliegvelden (METAR en TAF).

De beschikbare stations zijn de gele en rode punten op de kaart.

Ga met uw muis naar het station om de naam te zien.

Klik dan om waarnemingen en weersverwachtingen te zien.

kaart wijzigen: klik op de groene knoppen met een zwart kruis om in te zoomen, op de groene knop met een streepje om uit te zoomen of op de groene pijlen voor aangrenzende kaarten.


METAR-TAF: